Time;durP1;ratioP1;P1;durP2;ratioP2;P2;SDS_P1;SDS_P2;PMS_P1;PMS_P2;Temp;Humidity;BMP_temperature;BMP_pressure;BME280_temperature;BME280_humidity;BME280_pressure;Samples;Min_cycle;Max_cycle;Signal;HPM_P1;HPM_P2
2022/01/20 00:00:00;;;;;;;6.50;3.58;;;;;;;8.06;37.79;102630.34;144994;582;5002;-79
2022/01/20 00:02:28;;;;;;;6.10;3.72;;;;;;;8.03;37.41;102628.44;144994;600;5002;-80
2022/01/20 00:08:15;;;;;;;6.30;3.47;;;;;;;8.04;37.75;102616.41;144994;569;5004;-80
2022/01/20 00:27:23;;;;;;;5.18;3.20;;;;;;;8.09;37.86;102610.75;144994;609;5004;-79
2022/01/20 00:32:57;;;;;;;4.28;2.55;;;;;;;7.86;38.36;102616.91;144994;576;5002;-78
2022/01/20 00:35:29;;;;;;;5.93;2.55;;;;;;;7.98;37.93;102614.28;144994;569;5002;-82
2022/01/20 00:37:57;;;;;;;4.65;2.40;;;;;;;8.06;38.03;102609.66;144994;569;5002;-79
2022/01/20 00:40:25;;;;;;;4.90;2.67;;;;;;;8.10;37.79;102616.84;144994;620;5002;-79
2022/01/20 00:42:53;;;;;;;5.10;2.87;;;;;;;8.10;37.74;102611.69;144994;638;5002;-79
2022/01/20 00:45:21;;;;;;;3.37;2.30;;;;;;;8.14;37.62;102616.25;144994;579;5002;-77
2022/01/20 00:47:49;;;;;;;4.95;2.60;;;;;;;8.15;37.38;102615.47;144994;588;5002;-78
2022/01/20 00:50:17;;;;;;;4.62;2.47;;;;;;;8.17;37.39;102619.06;144994;602;5002;-78
2022/01/20 00:52:44;;;;;;;5.53;2.70;;;;;;;8.18;37.34;102613.09;144994;656;5002;-80
2022/01/20 00:55:13;;;;;;;5.57;2.40;;;;;;;8.17;37.55;102612.19;144994;570;5002;-79
2022/01/20 00:57:40;;;;;;;5.53;2.55;;;;;;;8.16;37.48;102596.56;144994;612;5002;-81
2022/01/20 01:00:09;;;;;;;4.87;2.78;;;;;;;8.12;37.46;102598.03;144994;583;5002;-79
2022/01/20 01:02:36;;;;;;;7.55;3.03;;;;;;;8.10;37.30;102596.16;144994;644;5002;-80
2022/01/20 01:05:05;;;;;;;7.05;3.05;;;;;;;8.04;37.39;102590.56;144994;588;5002;-79
2022/01/20 01:07:48;;;;;;;4.68;3.17;;;;;;;7.95;37.59;102583.94;144994;645;5002;-79
2022/01/20 01:10:24;;;;;;;5.37;3.00;;;;;;;7.90;37.44;102587.00;144994;575;5002;-79
2022/01/20 01:15:42;;;;;;;5.72;3.35;;;;;;;7.76;37.44;102580.84;144994;620;5004;-79
2022/01/20 01:23:45;;;;;;;5.35;3.35;;;;;;;7.60;38.39;102584.00;144994;578;5004;-80
2022/01/20 01:26:15;;;;;;;5.15;2.97;;;;;;;7.55;38.05;102570.75;144994;588;5004;-79
2022/01/20 01:28:43;;;;;;;4.82;2.95;;;;;;;7.53;38.22;102561.13;144994;606;4569;-80
2022/01/20 01:31:30;;;;;;;4.47;2.75;;;;;;;7.50;38.18;102559.19;144994;591;4574;-80
2022/01/20 01:37:04;;;;;;;5.45;2.83;;;;;;;7.45;38.31;102558.87;144992;601;6002;-81
2022/01/20 01:39:31;;;;;;;6.60;3.40;;;;;;;7.43;38.43;102550.12;144992;563;6002;-79
2022/01/20 01:42:01;;;;;;;5.20;3.30;;;;;;;7.43;38.44;102542.37;144992;566;6002;-80
2022/01/20 01:44:30;;;;;;;5.15;2.92;;;;;;;7.47;38.52;102546.06;144992;645;6002;-79
2022/01/20 01:46:58;;;;;;;5.40;2.80;;;;;;;7.49;38.51;102534.13;144992;611;6002;-80
2022/01/20 01:49:25;;;;;;;3.87;2.30;;;;;;;7.42;38.32;102527.63;144992;575;6002;-81
2022/01/20 01:51:51;;;;;;;4.35;2.33;;;;;;;7.41;38.42;102531.03;144992;599;6002;-81
2022/01/20 01:54:18;;;;;;;4.97;2.50;;;;;;;7.39;38.50;102521.34;144992;572;6002;-79
2022/01/20 01:56:50;;;;;;;5.05;2.50;;;;;;;7.33;38.51;102534.72;144992;649;6002;-79
2022/01/20 01:59:16;;;;;;;3.75;2.05;;;;;;;7.24;38.96;102528.91;144992;623;6002;-80
2022/01/20 02:01:43;;;;;;;3.35;2.00;;;;;;;7.14;39.21;102517.00;144992;592;6002;-80
2022/01/20 02:04:18;;;;;;;4.28;2.40;;;;;;;7.21;39.14;102508.91;144992;596;6002;-81
2022/01/20 02:21:13;;;;;;;6.00;3.05;;;;;;;7.50;38.48;102491.13;144992;627;6004;-80
2022/01/20 02:23:40;;;;;;;5.53;3.35;;;;;;;7.51;38.56;102485.13;144992;569;6004;-82
2022/01/20 02:26:07;;;;;;;8.77;3.65;;;;;;;7.52;38.66;102474.91;144992;568;6004;-81
2022/01/20 02:28:35;;;;;;;7.15;3.10;;;;;;;7.53;38.88;102481.88;144992;569;6005;-81
2022/01/20 02:31:01;;;;;;;5.05;3.05;;;;;;;7.51;38.73;102486.06;144992;562;6004;-81
2022/01/20 02:33:30;;;;;;;6.10;3.28;;;;;;;7.38;38.95;102486.88;144992;604;6004;-87
2022/01/20 02:36:12;;;;;;;6.00;3.47;;;;;;;7.40;38.64;102484.41;144992;619;6005;-80
2022/01/20 02:38:50;;;;;;;4.00;2.50;;;;;;;7.03;39.74;102476.59;144992;609;6004;-80
2022/01/20 02:46:56;;;;;;;4.93;2.28;;;;;;;7.45;39.21;102475.28;144992;563;6002;-81
2022/01/20 02:49:23;;;;;;;5.37;2.20;;;;;;;7.48;38.98;102462.59;144992;656;6002;-80
2022/01/20 02:51:55;;;;;;;4.22;2.30;;;;;;;7.52;38.86;102467.16;144992;565;6002;-79
2022/01/20 02:54:22;;;;;;;4.70;2.22;;;;;;;7.52;39.03;102459.41;144992;667;6002;-81
2022/01/20 02:56:49;;;;;;;4.75;2.67;;;;;;;7.56;38.69;102455.38;144992;585;6002;-80
2022/01/20 02:59:16;;;;;;;6.28;3.00;;;;;;;7.55;39.00;102457.03;144992;592;6002;-80
2022/01/20 03:01:42;;;;;;;3.90;2.28;;;;;;;7.48;39.21;102452.25;144992;570;6002;-80
2022/01/20 03:04:10;;;;;;;7.78;2.50;;;;;;;7.41;39.02;102456.09;144992;586;6002;-81
2022/01/20 03:06:36;;;;;;;3.72;1.90;;;;;;;7.38;39.05;102455.88;144992;575;6002;-79
2022/01/20 03:09:04;;;;;;;7.97;2.67;;;;;;;7.30;39.37;102453.53;144992;610;6002;-79
2022/01/20 03:11:32;;;;;;;8.70;4.70;;;;;;;7.21;39.46;102453.78;144992;575;6002;-80
2022/01/20 03:14:01;;;;;;;9.45;5.10;;;;;;;7.15;39.69;102451.66;144992;569;6002;-78
2022/01/20 03:16:29;;;;;;;8.00;4.10;;;;;;;7.02;40.02;102444.72;144992;570;6002;-83
2022/01/20 03:18:56;;;;;;;7.95;4.18;;;;;;;7.17;39.95;102444.00;144992;648;6002;-79
2022/01/20 03:21:24;;;;;;;7.62;4.03;;;;;;;7.25;39.98;102446.38;144992;569;6002;-80
2022/01/20 03:23:52;;;;;;;7.47;4.43;;;;;;;7.35;39.62;102445.31;144992;597;6002;-80
2022/01/20 03:26:18;;;;;;;6.70;3.80;;;;;;;7.41;39.42;102434.50;144992;608;6002;-79
2022/01/20 03:28:45;;;;;;;10.18;4.20;;;;;;;7.42;39.38;102431.16;144992;622;6002;-80
2022/01/20 03:31:11;;;;;;;7.22;3.83;;;;;;;7.43;39.30;102430.37;144992;616;6002;-81
2022/01/20 03:33:37;;;;;;;7.65;3.62;;;;;;;7.42;39.09;102433.72;144992;617;6002;-80
2022/01/20 03:36:04;;;;;;;10.10;4.53;;;;;;;7.39;39.10;102429.22;144992;585;6002;-78
2022/01/20 03:38:31;;;;;;;7.15;3.80;;;;;;;7.34;39.28;102427.13;144992;572;6002;-81
2022/01/20 03:40:58;;;;;;;7.35;4.00;;;;;;;7.22;39.62;102442.66;144992;586;6002;-80
2022/01/20 03:43:24;;;;;;;7.72;4.00;;;;;;;7.13;39.57;102445.50;144992;615;6002;-78
2022/01/20 03:45:55;;;;;;;9.75;4.47;;;;;;;7.09;39.73;102440.88;144992;609;6002;-78
2022/01/20 03:48:26;;;;;;;6.95;3.87;;;;;;;6.95;40.14;102433.81;144992;563;6002;-80
2022/01/20 03:51:02;;;;;;;6.93;3.62;;;;;;;6.93;40.20;102432.81;144992;608;6002;-80
2022/01/20 03:53:38;;;;;;;8.07;3.83;;;;;;;6.94;40.25;102439.81;144992;564;6002;-81
2022/01/20 03:56:06;;;;;;;7.75;4.05;;;;;;;7.01;40.22;102430.00;144992;566;6002;-80
2022/01/20 03:58:33;;;;;;;6.60;3.80;;;;;;;6.97;40.17;102435.75;144992;613;6002;-78
2022/01/20 04:01:01;;;;;;;6.90;3.62;;;;;;;6.84;40.64;102439.13;144992;599;6002;-79
2022/01/20 04:03:29;;;;;;;6.62;4.00;;;;;;;6.81;40.68;102437.97;144992;563;6002;-79
2022/01/20 04:05:59;;;;;;;7.78;4.32;;;;;;;6.83;40.59;102442.50;144992;584;6002;-80
2022/01/20 04:08:31;;;;;;;10.40;4.40;;;;;;;6.86;40.55;102436.66;144992;570;6002;-79
2022/01/20 04:11:02;;;;;;;9.15;4.65;;;;;;;6.84;40.41;102444.28;144992;563;6002;-80
2022/01/20 04:13:31;;;;;;;7.87;4.45;;;;;;;6.65;40.85;102447.22;144992;578;6002;-80
2022/01/20 04:16:14;;;;;;;8.52;4.30;;;;;;;6.54;41.49;102449.00;144992;597;6002;-79
2022/01/20 04:18:59;;;;;;;9.60;5.10;;;;;;;6.37;41.73;102441.69;144992;626;6002;-79
2022/01/20 04:21:28;;;;;;;9.07;4.78;;;;;;;6.12;41.86;102441.53;144992;579;6002;-79
2022/01/20 04:23:56;;;;;;;10.00;4.78;;;;;;;6.09;42.07;102439.63;144992;603;6002;-80
2022/01/20 04:26:24;;;;;;;15.23;5.10;;;;;;;5.99;42.38;102439.72;144992;614;6002;-80
2022/01/20 04:28:56;;;;;;;15.27;5.10;;;;;;;6.18;41.82;102444.56;144992;574;6002;-79
2022/01/20 04:31:24;;;;;;;13.13;5.80;;;;;;;6.27;41.60;102446.97;144992;711;6002;-78
2022/01/20 04:33:54;;;;;;;9.23;5.78;;;;;;;6.30;41.56;102440.34;144992;570;6002;-80
2022/01/20 04:36:20;;;;;;;10.13;6.03;;;;;;;6.32;41.65;102437.88;144992;604;6002;-81
2022/01/20 04:38:47;;;;;;;11.48;7.03;;;;;;;6.45;41.35;102434.53;144992;577;6002;-80
2022/01/20 04:41:14;;;;;;;10.65;6.82;;;;;;;6.29;41.88;102430.81;144992;599;6002;-79
2022/01/20 04:43:41;;;;;;;9.23;6.47;;;;;;;6.43;41.84;102437.00;144992;597;6002;-80
2022/01/20 04:46:17;;;;;;;10.85;6.53;;;;;;;6.14;42.34;102440.88;144992;628;6002;-80
2022/01/20 04:57:21;;;;;;;11.68;6.60;;;;;;;6.35;41.76;102433.84;144992;606;6004;-79
2022/01/20 04:59:52;;;;;;;10.48;6.32;;;;;;;6.45;41.58;102434.53;144992;626;6004;-79
2022/01/20 05:02:20;;;;;;;10.82;7.15;;;;;;;6.47;41.25;102440.69;144992;585;6004;-80
2022/01/20 05:04:48;;;;;;;11.05;6.12;;;;;;;6.33;42.22;102431.91;144992;671;6004;-79
2022/01/20 05:07:21;;;;;;;12.48;6.78;;;;;;;6.31;42.59;102436.06;144992;587;6004;-80
2022/01/20 05:09:47;;;;;;;9.98;5.80;;;;;;;5.98;43.06;102437.91;144992;606;6004;-80
2022/01/20 05:12:19;;;;;;;10.98;6.43;;;;;;;6.08;42.26;102435.25;144992;630;6004;-80
2022/01/20 05:14:46;;;;;;;10.55;6.25;;;;;;;5.76;43.25;102431.09;144992;619;6004;-79
2022/01/20 05:17:12;;;;;;;12.70;6.15;;;;;;;5.94;42.55;102425.53;144992;572;6004;-81
2022/01/20 05:19:39;;;;;;;9.95;6.40;;;;;;;6.07;42.35;102432.56;144992;573;6005;-80
2022/01/20 05:22:07;;;;;;;10.63;5.97;;;;;;;6.03;42.67;102430.53;144992;592;6004;-80
2022/01/20 05:24:33;;;;;;;9.80;5.95;;;;;;;6.12;42.32;102431.22;144992;643;6004;-80
2022/01/20 05:27:00;;;;;;;9.98;5.80;;;;;;;5.89;42.92;102422.63;144992;567;6005;-80
2022/01/20 05:29:27;;;;;;;11.82;6.30;;;;;;;6.03;42.94;102425.38;144992;585;6004;-79
2022/01/20 05:32:17;;;;;;;10.38;5.97;;;;;;;6.07;43.39;102420.56;144992;583;6004;-80
2022/01/20 05:34:44;;;;;;;9.75;5.43;;;;;;;5.88;43.98;102419.94;144992;605;6005;-80
2022/01/20 05:37:10;;;;;;;9.07;5.65;;;;;;;5.99;43.46;102416.50;144992;575;6004;-80
2022/01/20 05:39:38;;;;;;;12.93;5.22;;;;;;;6.10;43.04;102415.63;144992;567;6004;-81
2022/01/20 05:42:05;;;;;;;9.30;5.07;;;;;;;6.10;43.18;102419.91;144992;574;6004;-81
2022/01/20 05:44:32;;;;;;;9.05;5.12;;;;;;;6.23;42.78;102420.03;144992;587;6004;-80
2022/01/20 05:46:58;;;;;;;9.00;5.05;;;;;;;6.43;42.48;102418.94;144992;581;6004;-77
2022/01/20 05:49:32;;;;;;;8.02;4.30;;;;;;;6.50;42.48;102426.31;144992;610;6004;-81
2022/01/20 05:52:04;;;;;;;8.00;4.32;;;;;;;6.62;42.28;102430.63;144992;584;6004;-78
2022/01/20 05:54:31;;;;;;;8.30;4.72;;;;;;;6.70;42.54;102421.75;144992;562;6004;-79
2022/01/20 05:56:58;;;;;;;7.62;5.07;;;;;;;6.64;42.34;102422.19;144992;599;6019;-77
2022/01/20 05:59:25;;;;;;;10.65;4.95;;;;;;;6.28;42.66;102422.94;144992;577;6004;-76
2022/01/20 06:01:56;;;;;;;9.75;4.70;;;;;;;6.39;42.44;102424.62;144992;591;6004;-78
2022/01/20 06:04:24;;;;;;;6.82;4.00;;;;;;;6.25;42.45;102421.06;144992;587;6004;-77
2022/01/20 06:06:52;;;;;;;6.15;4.00;;;;;;;6.52;42.19;102426.44;144992;595;6004;-78
2022/01/20 06:09:20;;;;;;;5.07;3.90;;;;;;;6.64;41.88;102432.50;144992;567;6004;-79
2022/01/20 06:11:48;;;;;;;8.15;4.57;;;;;;;6.75;41.84;102428.12;144992;582;6004;-79
2022/01/20 06:14:15;;;;;;;12.18;5.30;;;;;;;6.85;41.70;102422.84;144992;628;6004;-77
2022/01/20 06:16:42;;;;;;;13.50;5.15;;;;;;;6.94;41.63;102424.31;144992;561;6004;-77
2022/01/20 06:19:08;;;;;;;10.80;4.93;;;;;;;7.07;41.42;102420.09;144992;586;6005;-78
2022/01/20 06:21:35;;;;;;;9.18;4.80;;;;;;;6.81;41.67;102428.56;144992;692;6004;-78
2022/01/20 06:24:01;;;;;;;8.38;5.20;;;;;;;7.17;41.13;102420.75;144992;581;6004;-78
2022/01/20 06:26:28;;;;;;;9.13;5.85;;;;;;;7.23;40.82;102429.84;144991;595;6000;-77
2022/01/20 06:28:54;;;;;;;9.63;6.10;;;;;;;7.48;41.13;102422.91;144992;613;6002;-78
2022/01/20 06:31:21;;;;;;;12.25;6.12;;;;;;;7.66;40.83;102415.56;144992;629;6002;-78
2022/01/20 06:33:48;;;;;;;7.68;5.55;;;;;;;7.92;40.50;102420.81;144992;589;6003;-78
2022/01/20 06:36:14;;;;;;;12.10;6.80;;;;;;;8.59;39.88;102409.66;144992;611;6002;-77
2022/01/20 06:38:42;;;;;;;16.55;7.62;;;;;;;9.53;38.74;102406.09;144992;569;6002;-76
2022/01/20 06:41:08;;;;;;;13.68;7.15;;;;;;;10.69;37.46;102405.09;144992;619;6003;-77
2022/01/20 06:43:35;;;;;;;20.35;11.15;;;;;;;12.00;35.33;102401.69;144992;649;6002;-78
2022/01/20 06:46:01;;;;;;;25.58;15.52;;;;;;;13.01;33.92;102381.34;144992;592;6002;-77
2022/01/20 06:48:28;;;;;;;33.03;19.77;;;;;;;13.71;33.17;102383.69;144992;563;6002;-78
2022/01/20 06:50:54;;;;;;;28.62;18.30;;;;;;;13.97;33.15;102389.13;144992;609;6002;-77
2022/01/20 06:53:21;;;;;;;25.60;16.33;;;;;;;13.75;33.36;102387.31;144992;646;6002;-80
2022/01/20 06:55:47;;;;;;;27.23;16.08;;;;;;;13.61;34.10;102378.87;144992;587;6002;-78
2022/01/20 06:58:14;;;;;;;22.83;15.65;;;;;;;13.52;34.44;102384.59;144992;565;6002;-78
2022/01/20 07:00:41;;;;;;;24.65;16.80;;;;;;;13.45;34.48;102373.81;144992;612;6002;-77
2022/01/20 07:03:07;;;;;;;25.08;17.55;;;;;;;13.38;34.65;102373.53;144992;575;6002;-77
2022/01/20 07:05:34;;;;;;;25.88;17.85;;;;;;;13.35;34.67;102373.38;144992;618;6002;-79
2022/01/20 07:08:01;;;;;;;23.02;14.57;;;;;;;13.36;34.39;102364.75;144992;600;6002;-77
2022/01/20 07:10:29;;;;;;;18.45;11.75;;;;;;;13.28;34.52;102359.97;144992;643;6002;-77
2022/01/20 07:12:55;;;;;;;18.20;11.27;;;;;;;13.14;34.78;102362.84;144992;597;6002;-78
2022/01/20 07:15:22;;;;;;;16.05;10.60;;;;;;;13.24;34.39;102365.03;144992;570;6002;-78
2022/01/20 07:17:49;;;;;;;17.42;10.32;;;;;;;13.32;34.31;102370.59;144992;609;6002;-78
2022/01/20 07:20:16;;;;;;;17.33;10.35;;;;;;;13.43;34.36;102366.78;144992;586;6002;-78
2022/01/20 07:22:42;;;;;;;20.73;9.75;;;;;;;13.53;33.79;102367.19;144992;570;6002;-77
2022/01/20 07:25:09;;;;;;;15.30;9.75;;;;;;;13.59;33.53;102367.47;144992;598;6002;-77
2022/01/20 07:27:35;;;;;;;12.43;9.23;;;;;;;13.64;33.50;102368.56;144992;613;6002;-78
2022/01/20 07:30:03;;;;;;;12.80;10.05;;;;;;;13.67;33.75;102365.19;144992;569;6002;-79
2022/01/20 07:32:29;;;;;;;13.15;8.93;;;;;;;13.66;33.43;102368.63;144992;594;6002;-77
2022/01/20 07:34:56;;;;;;;13.18;8.63;;;;;;;13.57;33.63;102363.91;144992;571;6002;-78
2022/01/20 07:37:27;;;;;;;11.82;8.70;;;;;;;13.63;33.47;102363.28;144992;679;6002;-78
2022/01/20 07:40:08;;;;;;;10.60;7.10;;;;;;;13.67;33.52;102360.88;144992;589;6002;-79
2022/01/20 07:42:40;;;;;;;11.63;7.15;;;;;;;13.74;33.39;102354.19;144992;564;6002;-80
2022/01/20 07:45:07;;;;;;;11.55;7.30;;;;;;;13.84;33.48;102345.94;144992;557;6002;-79
2022/01/20 07:47:35;;;;;;;11.30;7.30;;;;;;;13.82;33.58;102344.97;144992;688;6002;-78
2022/01/20 07:50:02;;;;;;;11.52;7.50;;;;;;;13.83;33.63;102341.53;144993;622;6002;-76
2022/01/20 07:52:28;;;;;;;11.27;6.40;;;;;;;13.84;33.55;102332.88;144993;563;6002;-78
2022/01/20 07:54:55;;;;;;;9.40;6.45;;;;;;;13.87;32.06;102319.97;144993;579;6002;-79
2022/01/20 07:57:22;;;;;;;9.05;5.40;;;;;;;13.97;33.10;102318.63;144993;587;6002;-78
2022/01/20 07:59:48;;;;;;;10.45;6.00;;;;;;;14.07;32.82;102326.00;144993;632;6002;-77
2022/01/20 08:02:16;;;;;;;9.85;6.80;;;;;;;14.08;33.20;102322.56;144993;643;6002;-78
2022/01/20 08:04:45;;;;;;;12.18;6.45;;;;;;;13.89;32.74;102330.47;144993;734;6002;-78
2022/01/20 08:07:13;;;;;;;11.70;6.12;;;;;;;13.93;33.02;102319.31;144993;560;6002;-77
2022/01/20 08:09:40;;;;;;;8.80;4.65;;;;;;;13.90;33.07;102311.34;144993;587;6002;-78
2022/01/20 08:12:10;;;;;;;8.30;4.65;;;;;;;14.09;33.18;102310.38;144993;587;6002;-78
2022/01/20 08:14:36;;;;;;;8.93;4.75;;;;;;;14.23;32.77;102314.44;144993;582;6002;-79
2022/01/20 08:17:03;;;;;;;8.45;4.28;;;;;;;14.32;32.82;102321.78;144993;589;6002;-79
2022/01/20 08:19:30;;;;;;;9.25;4.40;;;;;;;14.36;32.48;102309.72;144992;585;6002;-79
2022/01/20 08:21:56;;;;;;;6.53;4.60;;;;;;;14.51;32.05;102313.81;144992;585;6002;-77
2022/01/20 08:24:23;;;;;;;7.90;4.87;;;;;;;14.38;32.47;102321.13;144992;643;6002;-77
2022/01/20 08:27:08;;;;;;;7.15;4.68;;;;;;;14.48;32.52;102313.69;144992;634;6002;-76
2022/01/20 08:29:36;;;;;;;8.02;4.82;;;;;;;14.51;30.93;102306.00;144992;591;6002;-78
2022/01/20 08:32:04;;;;;;;11.50;4.90;;;;;;;14.69;32.29;102313.66;144992;583;6002;-79
2022/01/20 08:34:34;;;;;;;8.77;5.03;;;;;;;14.76;32.16;102312.22;144993;640;6002;-77
2022/01/20 08:37:00;;;;;;;8.50;5.03;;;;;;;14.71;29.36;102298.03;144993;609;6002;-77
2022/01/20 08:42:19;;;;;;;5.95;4.40;;;;;;;15.03;31.93;102293.12;144993;581;6000;-79
2022/01/20 08:44:45;;;;;;;10.93;7.68;;;;;;;15.15;31.63;102293.56;144993;587;6002;-78
2022/01/20 08:47:17;;;;;;;11.63;7.80;;;;;;;15.18;31.69;102285.84;144993;565;6002;-79
2022/01/20 08:49:48;;;;;;;9.60;6.70;;;;;;;15.12;30.68;102285.62;144992;579;6002;-78
2022/01/20 08:52:21;;;;;;;10.32;5.22;;;;;;;15.29;31.39;102287.94;144993;574;6002;-77
2022/01/20 08:54:47;;;;;;;11.68;5.20;;;;;;;15.30;31.68;102284.50;144993;563;6002;-77
2022/01/20 08:57:15;;;;;;;8.65;5.53;;;;;;;15.10;28.81;102281.19;144993;585;6002;-77
2022/01/20 08:59:42;;;;;;;10.10;5.05;;;;;;;15.15;29.82;102274.37;144993;620;6002;-79
2022/01/20 09:02:09;;;;;;;6.82;4.43;;;;;;;15.37;31.82;102274.31;144993;569;6002;-79
2022/01/20 09:04:35;;;;;;;9.75;3.95;;;;;;;15.52;31.72;102279.16;144993;599;6002;-78
2022/01/20 09:07:02;;;;;;;6.70;3.62;;;;;;;15.65;31.52;102270.00;144992;719;6002;-77
2022/01/20 09:09:29;;;;;;;6.70;3.97;;;;;;;15.78;31.44;102266.12;144993;564;6002;-78
2022/01/20 09:12:18;;;;;;;8.82;5.00;;;;;;;15.88;31.30;102267.31;144993;591;6002;-79
2022/01/20 09:17:31;;;;;;;8.40;4.47;;;;;;;16.10;31.59;102253.16;144993;660;6004;-78
2022/01/20 09:19:59;;;;;;;7.20;3.78;;;;;;;16.08;28.74;102239.13;144993;633;6002;-79
2022/01/20 09:22:28;;;;;;;7.45;4.10;;;;;;;16.24;30.82;102246.63;144993;586;6002;-78
2022/01/20 09:24:55;;;;;;;7.47;4.22;;;;;;;16.03;29.45;102231.09;144993;582;6002;-79
2022/01/20 09:27:22;;;;;;;9.82;4.62;;;;;;;16.17;30.68;102228.94;144994;596;5002;-78
2022/01/20 09:29:48;;;;;;;6.62;3.90;;;;;;;16.10;30.72;102237.44;144994;590;5002;-78
2022/01/20 09:32:20;;;;;;;8.55;4.00;;;;;;;16.21;30.44;102228.19;144994;746;5002;-79
2022/01/20 09:34:47;;;;;;;5.00;3.90;;;;;;;16.21;30.29;102230.81;144993;585;5014;-78
2022/01/20 09:37:13;;;;;;;7.47;3.90;;;;;;;16.25;30.67;102226.53;144994;636;5002;-77
2022/01/20 09:39:40;;;;;;;5.85;3.40;;;;;;;16.30;30.11;102225.84;144994;563;5002;-79
2022/01/20 09:42:08;;;;;;;10.75;3.22;;;;;;;16.17;29.17;102223.69;144994;564;5002;-78
2022/01/20 09:44:35;;;;;;;7.43;3.47;;;;;;;16.12;30.70;102220.91;144994;617;5002;-77
2022/01/20 09:47:02;;;;;;;4.22;2.80;;;;;;;16.19;28.80;102219.38;144994;619;5002;-74
2022/01/20 09:49:28;;;;;;;5.28;2.80;;;;;;;16.38;30.37;102214.69;144994;583;5002;-77
2022/01/20 09:51:55;;;;;;;5.10;3.05;;;;;;;16.44;30.41;102205.28;144994;585;5002;-79
2022/01/20 09:54:23;;;;;;;7.22;3.80;;;;;;;16.35;29.94;102191.00;144994;609;5002;-83
2022/01/20 09:56:49;;;;;;;9.32;4.47;;;;;;;16.51;30.48;102195.84;144994;624;5002;-78
2022/01/20 09:59:16;;;;;;;6.85;2.95;;;;;;;16.61;28.34;102186.53;144994;564;5002;-78
2022/01/20 10:01:45;;;;;;;4.75;2.53;;;;;;;16.46;26.37;102184.34;144994;607;5002;-76
2022/01/20 10:04:38;;;;;;;4.30;2.75;;;;;;;16.64;29.96;102174.41;144994;581;5002;-77
2022/01/20 10:07:08;;;;;;;6.95;3.33;;;;;;;16.76;28.15;102162.47;144994;580;5002;-78
2022/01/20 10:09:43;;;;;;;5.43;3.42;;;;;;;16.79;29.57;102160.81;144994;594;5002;-79
2022/01/20 10:12:10;;;;;;;;;;;;;;;16.85;27.52;102152.22;144998;911;5002;-77
2022/01/20 10:14:56;;;;;;;6.75;3.60;;;;;;;16.97;29.04;102155.22;144998;595;5002;-79
2022/01/20 10:17:28;;;;;;;8.68;3.75;;;;;;;16.97;28.46;102154.31;144994;686;5002;-76
2022/01/20 10:20:03;;;;;;;12.00;4.25;;;;;;;17.11;29.05;102149.44;144994;606;5002;-79
2022/01/20 10:22:31;;;;;;;8.23;4.30;;;;;;;17.02;28.51;102137.88;144994;572;5002;-78
2022/01/20 10:25:11;;;;;;;5.78;3.70;;;;;;;16.87;27.31;102127.84;144994;588;5002;-78
2022/01/20 10:27:52;;;;;;;5.20;3.15;;;;;;;16.92;27.96;102125.34;144994;571;5002;-77
2022/01/20 10:30:24;;;;;;;6.57;3.42;;;;;;;16.91;27.90;102117.44;144994;587;5002;-79
2022/01/20 10:32:57;;;;;;;6.65;3.28;;;;;;;17.12;29.63;102110.12;144994;612;5002;-80
2022/01/20 10:35:27;;;;;;;5.37;3.03;;;;;;;17.14;29.50;102091.78;144994;705;5002;-78
2022/01/20 10:38:13;;;;;;;3.97;3.00;;;;;;;17.19;28.77;102095.41;144994;569;5002;-80
2022/01/20 10:40:59;;;;;;;5.22;2.92;;;;;;;17.36;28.86;102080.94;144994;599;5012;-79
2022/01/20 10:43:28;;;;;;;5.43;2.90;;;;;;;17.43;29.05;102079.34;144994;579;5002;-78
2022/01/20 10:46:10;;;;;;;6.22;3.03;;;;;;;17.16;28.56;102067.34;144994;591;5002;-78
2022/01/20 10:48:38;;;;;;;5.55;3.30;;;;;;;17.30;29.20;102066.81;144994;570;5002;-77
2022/01/20 10:51:20;;;;;;;6.78;3.08;;;;;;;16.99;28.09;102060.81;144994;581;5002;-77
2022/01/20 10:54:04;;;;;;;8.73;3.42;;;;;;;16.96;29.33;102058.13;144994;581;5002;-77
2022/01/20 10:56:37;;;;;;;8.02;3.65;;;;;;;17.20;28.94;102060.47;144994;640;5002;-78
2022/01/20 10:59:08;;;;;;;5.72;3.33;;;;;;;17.34;29.14;102061.66;144994;576;5002;-78
2022/01/20 11:01:38;;;;;;;6.53;3.00;;;;;;;17.27;29.11;102064.97;144994;575;5002;-77
2022/01/20 11:04:05;;;;;;;5.90;3.20;;;;;;;17.38;28.71;102053.00;144994;585;5002;-77
2022/01/20 11:06:36;;;;;;;5.05;3.70;;;;;;;17.43;28.82;102047.84;144994;581;5002;-78
2022/01/20 11:09:07;;;;;;;5.93;4.00;;;;;;;17.41;28.68;102039.94;144994;563;5002;-76
2022/01/20 11:11:35;;;;;;;11.18;3.87;;;;;;;17.38;29.29;102042.50;144994;572;5002;-79
2022/01/20 11:14:05;;;;;;;9.15;3.78;;;;;;;17.32;29.14;102036.22;144994;661;5002;-78
2022/01/20 11:16:38;;;;;;;10.60;3.75;;;;;;;17.38;27.96;102034.63;144994;564;5002;-77
2022/01/20 11:19:20;;;;;;;10.60;5.05;;;;;;;17.23;28.74;102034.28;144994;599;5002;-78
2022/01/20 11:21:51;;;;;;;7.20;3.28;;;;;;;17.35;29.34;102028.41;144994;565;5002;-78
2022/01/20 11:24:24;;;;;;;4.37;3.33;;;;;;;17.44;29.74;102025.12;144994;569;5002;-78
2022/01/20 11:26:52;;;;;;;4.22;3.55;;;;;;;17.52;28.57;102032.31;144994;593;5002;-77
2022/01/20 11:29:20;;;;;;;7.45;3.50;;;;;;;17.59;29.59;102026.34;144994;604;5002;-77
2022/01/20 11:31:49;;;;;;;5.40;3.37;;;;;;;17.61;28.94;102018.50;144994;701;5002;-78
2022/01/20 11:34:18;;;;;;;5.87;3.72;;;;;;;17.60;29.50;102021.97;144994;597;5002;-77
2022/01/20 11:36:45;;;;;;;6.60;3.20;;;;;;;17.59;29.20;102014.94;144994;635;5002;-78
2022/01/20 11:39:12;;;;;;;7.30;3.10;;;;;;;17.65;29.24;102012.44;144994;578;5003;-77
2022/01/20 11:41:46;;;;;;;8.93;3.45;;;;;;;17.57;29.22;102016.66;144994;585;5002;-76
2022/01/20 11:44:27;;;;;;;7.05;2.62;;;;;;;17.52;29.59;102010.44;144994;693;5002;-78
2022/01/20 11:47:03;;;;;;;5.93;2.50;;;;;;;17.46;29.02;102005.03;144994;623;5002;-78
2022/01/20 11:49:36;;;;;;;5.00;2.75;;;;;;;17.56;29.49;101993.88;144994;589;5002;-79
2022/01/20 11:52:03;;;;;;;4.55;2.97;;;;;;;17.61;29.19;101994.88;144994;574;5002;-77
2022/01/20 11:54:36;;;;;;;4.85;3.20;;;;;;;17.60;28.99;101995.72;144994;577;5002;-76
2022/01/20 11:57:30;;;;;;;5.72;2.90;;;;;;;17.63;28.75;101992.28;144994;574;5002;-77
2022/01/20 12:00:01;;;;;;;7.18;3.05;;;;;;;17.52;28.70;101982.44;144994;576;5004;-78
2022/01/20 12:02:34;;;;;;;6.93;3.00;;;;;;;17.58;28.88;101974.69;144994;574;5004;-78
2022/01/20 12:05:03;;;;;;;9.40;3.40;;;;;;;17.52;27.97;101976.31;144994;698;5004;-78
2022/01/20 12:07:33;;;;;;;5.30;2.42;;;;;;;17.40;26.52;101972.56;144993;585;5004;-78
2022/01/20 12:10:11;;;;;;;2.78;1.80;;;;;;;17.51;28.69;101966.66;144994;566;5002;-76
2022/01/20 12:12:39;;;;;;;3.92;1.60;;;;;;;17.59;28.21;101971.22;144994;580;5002;-78
2022/01/20 12:15:22;;;;;;;2.60;1.52;;;;;;;17.14;25.81;101960.59;144994;588;5002;-77
2022/01/20 12:17:54;;;;;;;4.68;2.00;;;;;;;17.04;27.86;101963.00;144994;611;5002;-79
2022/01/20 12:20:23;;;;;;;3.92;1.90;;;;;;;17.15;28.11;101954.53;144994;595;5002;-76
2022/01/20 12:22:50;;;;;;;2.87;1.83;;;;;;;17.09;25.41;101951.75;144994;680;5002;-78
2022/01/20 12:25:26;;;;;;;3.20;1.50;;;;;;;17.15;27.93;101954.53;144994;573;5002;-79
2022/01/20 12:28:05;;;;;;;3.45;1.65;;;;;;;17.29;27.65;101946.94;144994;613;5002;-76
2022/01/20 12:30:33;;;;;;;7.55;1.58;;;;;;;17.41;28.21;101945.44;144994;659;5002;-75
2022/01/20 12:33:12;;;;;;;3.92;1.90;;;;;;;17.01;27.66;101943.72;144994;589;5002;-77
2022/01/20 12:35:50;;;;;;;5.68;1.75;;;;;;;17.07;28.03;101937.69;144994;590;5002;-78
2022/01/20 12:38:29;;;;;;;2.80;1.80;;;;;;;16.81;27.87;101935.31;144994;569;5002;-78
2022/01/20 12:41:16;;;;;;;2.60;1.80;;;;;;;16.93;25.94;101921.66;144994;576;5002;-79
2022/01/20 12:44:08;;;;;;;2.55;1.90;;;;;;;17.15;27.20;101928.28;144994;571;5002;-78
2022/01/20 12:46:37;;;;;;;3.42;1.80;;;;;;;17.15;27.35;101928.28;144994;617;5004;-77
2022/01/20 12:49:16;;;;;;;2.65;2.20;;;;;;;17.04;25.27;101918.41;144994;666;5004;-79
2022/01/20 12:51:54;;;;;;;1.70;1.60;;;;;;;17.12;27.56;101922.97;144994;606;5004;-77
2022/01/20 12:54:29;;;;;;;3.95;2.72;;;;;;;17.13;27.32;101917.75;144994;589;5004;-79